Terminal Aerodrome Forecast
Issued by NWS Cleveland, OH

Home | Current Version | Previous Version | Graphics & Text | Print | Product List | Glossary Off
Versions: 1 2 3 4 5 6 7 8 9 10 11 12 13 14

000
FTUS41 KCLE 221700
TAFMFD
TAF
KMFD 221720Z 2218/2318 29014G22KT P6SM SCT025
     FM222100 32014G20KT P6SM SCT040
     FM230200 33010KT P6SM BKN120
     FM230600 33008KT P6SM SKC
     FM231500 34011KT P6SM SCT250=

USA.gov is the U.S. government's official web portal to all federal, state and local government web resources and services.